createdAt,value
2023-07-06T00:01:18.597Z,5.65
2023-07-06T00:05:36.028Z,4.25
2023-07-06T00:07:48.588Z,7.13
2023-07-06T00:09:59.401Z,4.35
2023-07-06T00:12:07.633Z,7.65
2023-07-06T00:14:16.296Z,4.00
2023-07-06T00:16:22.421Z,4.03
2023-07-06T00:18:26.246Z,5.82
2023-07-06T00:20:34.922Z,5.32
2023-07-06T00:22:43.049Z,5.35
2023-07-06T00:24:53.504Z,3.67
2023-07-06T00:27:05.899Z,6.13
2023-07-06T00:29:11.280Z,7.10
2023-07-06T00:31:22.523Z,4.25
2023-07-06T00:33:46.372Z,5.75
2023-07-06T00:35:55.189Z,4.38
2023-07-06T00:38:01.058Z,5.60
2023-07-06T00:40:13.793Z,4.38
2023-07-06T00:42:21.317Z,4.00
2023-07-06T00:45:02.042Z,4.22
2023-07-06T00:47:11.385Z,5.82
2023-07-06T00:49:19.829Z,4.03
2023-07-06T00:51:38.846Z,5.35
2023-07-06T00:53:48.372Z,6.03
2023-07-06T00:55:56.110Z,4.97
2023-07-06T00:58:08.914Z,3.80
2023-07-06T01:00:22.088Z,3.70
2023-07-06T01:02:33.110Z,3.80
2023-07-06T01:04:41.184Z,6.15
2023-07-06T01:06:54.463Z,8.77
2023-07-06T01:09:04.278Z,5.25
2023-07-06T01:11:12.196Z,5.65
2023-07-06T01:13:18.084Z,5.05
2023-07-06T01:15:26.466Z,3.92
2023-07-06T01:20:15.636Z,7.32
2023-07-06T01:22:52.490Z,5.88
2023-07-06T01:25:18.985Z,5.05
2023-07-06T01:28:04.313Z,5.97
2023-07-06T01:30:41.025Z,5.03
2023-07-06T01:33:00.352Z,3.30
2023-07-06T01:35:15.352Z,7.35
2023-07-06T01:37:29.929Z,6.20
2023-07-06T01:39:35.345Z,6.20
2023-07-06T01:41:42.944Z,5.53
2023-07-06T01:46:08.176Z,5.47
2023-07-06T01:48:17.945Z,5.70
2023-07-06T01:50:31.933Z,5.32
2023-07-06T01:53:10.094Z,5.38
2023-07-06T01:55:23.040Z,4.47
2023-07-06T01:57:43.407Z,5.55
2023-07-06T02:00:06.314Z,4.65
2023-07-06T02:02:32.836Z,4.60
2023-07-06T02:04:45.745Z,4.78
2023-07-06T02:06:55.108Z,6.10
2023-07-06T02:09:00.781Z,5.85
2023-07-06T02:11:07.251Z,4.15
2023-07-06T02:13:14.005Z,5.50
2023-07-06T02:15:21.460Z,7.35
2023-07-06T02:17:27.705Z,4.82
2023-07-06T02:19:41.919Z,4.50
2023-07-06T02:21:50.419Z,6.40
2023-07-06T02:23:55.807Z,6.93
2023-07-06T02:26:01.189Z,5.07
2023-07-06T02:28:09.508Z,7.78
2023-07-06T02:30:15.450Z,9.45
2023-07-06T02:32:29.024Z,6.40
2023-07-06T02:34:35.687Z,8.52
2023-07-06T02:36:41.726Z,9.50
2023-07-06T02:38:53.600Z,7.28
2023-07-06T02:40:59.394Z,6.03
2023-07-06T02:43:06.078Z,7.15
2023-07-06T02:45:13.135Z,8.25
2023-07-06T02:47:19.239Z,7.78
2023-07-06T02:49:25.055Z,9.90
2023-07-06T02:51:37.319Z,6.07
2023-07-06T02:53:43.709Z,6.25
2023-07-06T02:55:54.212Z,6.50
2023-07-06T02:57:59.977Z,6.53
2023-07-06T03:00:11.488Z,7.88
2023-07-06T03:02:18.022Z,7.95
2023-07-06T03:04:30.947Z,7.23
2023-07-06T03:06:36.753Z,7.95
2023-07-06T03:08:42.491Z,9.05
2023-07-06T03:10:50.893Z,5.63
2023-07-06T03:12:56.309Z,9.07
2023-07-06T03:15:05.351Z,7.63
2023-07-06T03:17:14.060Z,5.80
2023-07-06T03:19:20.285Z,10.90
2023-07-06T03:21:26.733Z,6.63
2023-07-06T03:23:47.804Z,10.43
2023-07-06T03:25:57.686Z,6.82
2023-07-06T03:28:03.990Z,7.82
2023-07-06T03:30:11.996Z,6.47
2023-07-06T03:32:18.312Z,7.22
2023-07-06T03:34:30.043Z,7.93
2023-07-06T03:36:36.108Z,5.60
2023-07-06T03:38:42.104Z,5.05
2023-07-06T03:40:56.100Z,8.18
2023-07-06T03:43:03.317Z,5.10
2023-07-06T03:45:12.189Z,7.07
2023-07-06T03:47:18.097Z,9.38
2023-07-06T03:49:24.125Z,7.00
2023-07-06T03:51:36.118Z,8.63
2023-07-06T03:53:48.985Z,9.90
2023-07-06T03:55:59.548Z,10.80
2023-07-06T03:58:06.341Z,8.27
2023-07-06T04:00:19.329Z,10.30
2023-07-06T04:02:24.715Z,6.95
2023-07-06T04:04:36.680Z,6.00
2023-07-06T04:06:44.629Z,8.30
2023-07-06T04:08:50.178Z,9.30
2023-07-06T04:10:59.159Z,10.70
2023-07-06T04:13:05.429Z,6.70
2023-07-06T04:15:12.544Z,7.25
2023-07-06T04:17:19.194Z,6.88
2023-07-06T04:19:32.254Z,4.75
2023-07-06T04:21:37.821Z,7.78
2023-07-06T04:23:49.696Z,7.47
2023-07-06T04:28:09.327Z,12.02
2023-07-06T04:30:16.028Z,8.27
2023-07-06T04:32:25.123Z,11.93
2023-07-06T04:34:35.759Z,7.30
2023-07-06T04:36:41.905Z,9.20
2023-07-06T04:38:48.393Z,11.00
2023-07-06T04:40:55.140Z,11.95
2023-07-06T04:42:58.773Z,7.75
2023-07-06T04:45:07.152Z,10.90
2023-07-06T04:47:14.775Z,11.82
2023-07-06T04:49:22.743Z,9.80
2023-07-06T04:51:29.325Z,10.25
2023-07-06T04:53:47.757Z,6.97
2023-07-06T04:55:56.044Z,12.07
2023-07-06T04:58:07.904Z,7.40
2023-07-06T05:00:19.628Z,7.18
2023-07-06T05:02:28.408Z,8.20
2023-07-06T05:04:55.819Z,12.68
2023-07-06T05:07:02.383Z,7.05
2023-07-06T05:09:11.727Z,8.23
2023-07-06T05:11:17.113Z,6.80
2023-07-06T05:13:27.180Z,7.38
2023-07-06T05:15:38.174Z,8.10
2023-07-06T05:17:44.639Z,7.22
2023-07-06T05:19:50.834Z,5.72
2023-07-06T05:21:56.354Z,6.53
2023-07-06T05:24:01.726Z,6.30
2023-07-06T05:26:08.807Z,19.40
2023-07-06T05:28:20.903Z,10.00
2023-07-06T05:30:28.759Z,8.77
2023-07-06T05:32:37.985Z,4.90
2023-07-06T05:34:46.999Z,7.82
2023-07-06T05:36:52.897Z,7.60
2023-07-06T05:38:59.076Z,5.63
2023-07-06T05:41:07.105Z,7.68
2023-07-06T05:43:15.217Z,6.80
2023-07-06T05:45:21.014Z,6.47
2023-07-06T05:47:30.407Z,6.32
2023-07-06T05:49:39.256Z,5.47
2023-07-06T05:51:49.050Z,9.13
2023-07-06T05:53:54.713Z,6.30
2023-07-06T05:56:00.662Z,7.18
2023-07-06T05:58:06.293Z,5.68
2023-07-06T06:00:17.832Z,5.82
2023-07-06T06:02:25.306Z,6.43
2023-07-06T06:06:55.301Z,6.05
2023-07-06T06:09:01.161Z,7.18
2023-07-06T06:11:06.787Z,6.30
2023-07-06T06:13:12.334Z,6.07
2023-07-06T06:15:21.919Z,6.22
2023-07-06T06:17:28.364Z,7.05
2023-07-06T06:19:42.344Z,5.80
2023-07-06T06:21:52.080Z,5.15
2023-07-06T06:24:00.157Z,5.82
2023-07-06T06:26:05.945Z,5.78
2023-07-06T06:28:11.800Z,5.32
2023-07-06T06:30:18.817Z,7.60
2023-07-06T06:32:25.979Z,4.57
2023-07-06T06:34:38.523Z,5.72
2023-07-06T06:36:44.580Z,10.82
2023-07-06T06:39:02.292Z,6.40
2023-07-06T06:41:09.046Z,6.30
2023-07-06T06:43:15.870Z,5.97
2023-07-06T06:45:24.659Z,6.30
2023-07-06T06:47:34.311Z,3.53
2023-07-06T06:49:40.892Z,4.78
2023-07-06T06:51:46.975Z,7.20
2023-07-06T06:54:05.921Z,6.80
2023-07-06T06:56:12.602Z,6.55
2023-07-06T06:58:18.254Z,4.30
2023-07-06T07:00:24.734Z,7.05
2023-07-06T07:02:31.893Z,5.95
2023-07-06T07:04:40.494Z,4.85
2023-07-06T07:06:45.981Z,7.20
2023-07-06T07:08:55.589Z,4.97
2023-07-06T07:11:17.877Z,4.47
2023-07-06T07:13:32.886Z,5.45
2023-07-06T07:15:38.336Z,5.32
2023-07-06T07:17:47.078Z,3.75
2023-07-06T07:19:52.834Z,5.75
2023-07-06T07:22:02.091Z,6.70
2023-07-06T07:24:10.274Z,6.15
2023-07-06T07:26:18.769Z,6.18
2023-07-06T07:28:40.848Z,7.70
2023-07-06T07:30:47.363Z,7.18
2023-07-06T07:32:53.373Z,3.90
2023-07-06T07:35:00.286Z,5.20
2023-07-06T07:37:08.526Z,4.07
2023-07-06T07:39:17.125Z,5.07
2023-07-06T07:41:24.152Z,3.75
2023-07-06T07:43:35.576Z,2.93
2023-07-06T07:45:40.960Z,6.38
2023-07-06T07:47:46.716Z,3.08
2023-07-06T07:49:52.307Z,3.92
2023-07-06T07:51:58.296Z,5.80
2023-07-06T07:54:06.330Z,4.03
2023-07-06T07:56:30.164Z,4.75
2023-07-06T07:58:37.829Z,3.95
2023-07-06T08:00:43.416Z,2.90
2023-07-06T08:02:49.877Z,3.60
2023-07-06T08:04:55.272Z,4.50
2023-07-06T08:07:00.825Z,5.10
2023-07-06T08:09:09.121Z,2.55
2023-07-06T08:11:22.611Z,3.20
2023-07-06T08:13:33.621Z,3.13
2023-07-06T08:15:40.655Z,5.07
2023-07-06T08:17:46.755Z,6.43
2023-07-06T08:20:30.602Z,3.95
2023-07-06T08:22:19.098Z,2.92
2023-07-06T08:24:26.145Z,2.05
2023-07-06T08:26:34.372Z,4.03
2023-07-06T08:28:40.856Z,4.18
2023-07-06T08:30:46.485Z,5.68
2023-07-06T08:33:02.912Z,5.25
2023-07-06T08:35:09.167Z,2.78
2023-07-06T08:37:14.535Z,3.22
2023-07-06T08:39:24.529Z,3.10
2023-07-06T08:41:38.631Z,3.65
2023-07-06T08:43:47.568Z,3.90
2023-07-06T08:46:02.267Z,5.97
2023-07-06T08:48:08.955Z,2.85
2023-07-06T08:50:16.805Z,2.85
2023-07-06T08:52:23.625Z,4.68
2023-07-06T08:54:56.809Z,4.35
2023-07-06T08:57:06.083Z,2.03
2023-07-06T08:59:21.408Z,3.58
2023-07-06T09:01:31.541Z,3.70
2023-07-06T09:03:46.020Z,4.75
2023-07-06T09:05:52.901Z,5.13
2023-07-06T09:07:59.943Z,3.20
2023-07-06T09:10:24.422Z,1.97
2023-07-06T09:12:40.596Z,5.35
2023-07-06T09:14:55.209Z,5.80
2023-07-06T09:17:01.449Z,3.17
2023-07-06T09:19:13.131Z,3.90
2023-07-06T09:21:20.902Z,4.18
2023-07-06T09:23:31.109Z,2.35
2023-07-06T09:25:39.906Z,2.17
2023-07-06T09:27:51.389Z,3.78
2023-07-06T09:30:03.211Z,5.03
2023-07-06T09:32:19.741Z,4.45
2023-07-06T09:34:30.006Z,1.70
2023-07-06T09:36:42.623Z,3.25
2023-07-06T09:38:49.495Z,3.58
2023-07-06T09:40:56.643Z,4.25
2023-07-06T09:43:04.860Z,4.15
2023-07-06T09:45:26.593Z,2.28
2023-07-06T09:47:34.658Z,3.85
2023-07-06T09:50:02.555Z,4.68
2023-07-06T09:52:13.234Z,2.40
2023-07-06T09:54:23.267Z,2.67
2023-07-06T09:56:29.707Z,3.25
2023-07-06T10:01:25.359Z,3.88
2023-07-06T10:03:44.194Z,3.35
2023-07-06T10:06:00.042Z,2.50
2023-07-06T10:08:16.070Z,2.65
2023-07-06T10:10:33.957Z,2.17
2023-07-06T10:12:56.928Z,4.93
2023-07-06T10:15:18.750Z,5.20
2023-07-06T10:17:41.959Z,4.78
2023-07-06T10:19:55.236Z,3.35
2023-07-06T10:22:14.309Z,3.75
2023-07-06T10:24:37.855Z,3.35
2023-07-06T10:29:18.241Z,4.70
2023-07-06T10:31:37.962Z,4.75
2023-07-06T10:33:54.473Z,5.65
2023-07-06T10:36:01.777Z,3.35
2023-07-06T10:40:25.284Z,2.63
2023-07-06T10:42:33.235Z,3.45
2023-07-06T10:44:50.198Z,4.20
2023-07-06T10:47:05.061Z,4.85
2023-07-06T10:49:25.195Z,2.88
2023-07-06T10:51:31.610Z,3.70
2023-07-06T10:53:44.715Z,2.65
2023-07-06T10:56:02.306Z,3.67
2023-07-06T10:58:29.380Z,2.45
2023-07-06T11:00:38.869Z,4.45
2023-07-06T11:02:48.185Z,10.00
2023-07-06T11:05:14.433Z,4.90
2023-07-06T11:07:48.220Z,4.90
2023-07-06T11:10:13.557Z,1.48
2023-07-06T11:12:22.241Z,3.60
2023-07-06T11:14:41.568Z,2.00
2023-07-06T11:16:56.566Z,2.63
2023-07-06T11:19:11.059Z,4.05
2023-07-06T11:21:53.975Z,1.73
2023-07-06T11:24:07.935Z,2.45
2023-07-06T11:26:49.873Z,3.75
2023-07-06T11:28:55.411Z,2.17
2023-07-06T11:31:09.741Z,2.97
2023-07-06T11:33:25.931Z,4.97
2023-07-06T11:35:49.888Z,3.50
2023-07-06T11:38:23.785Z,2.67
2023-07-06T11:40:53.019Z,2.85
2023-07-06T11:43:09.955Z,2.88
2023-07-06T11:45:32.028Z,4.20
2023-07-06T11:47:54.804Z,2.78
2023-07-06T11:50:03.940Z,3.95
2023-07-06T11:52:22.087Z,5.18
2023-07-06T11:54:41.950Z,2.20
2023-07-06T11:57:04.959Z,2.25
2023-07-06T11:59:37.706Z,5.55
2023-07-06T12:01:47.466Z,2.53
2023-07-06T12:03:52.888Z,1.95
2023-07-06T12:06:00.921Z,3.90
2023-07-06T12:08:18.268Z,4.15
2023-07-06T12:10:24.330Z,3.25
2023-07-06T12:12:29.818Z,2.25
2023-07-06T12:14:42.563Z,7.22
2023-07-06T12:16:48.421Z,3.40
2023-07-06T12:18:59.612Z,2.63
2023-07-06T12:21:06.986Z,3.83
2023-07-06T12:23:16.666Z,3.95
2023-07-06T12:25:23.245Z,2.72
2023-07-06T12:27:34.284Z,5.55
2023-07-06T12:29:39.963Z,6.45
2023-07-06T12:31:46.617Z,3.15
2023-07-06T12:34:07.945Z,5.30
2023-07-06T12:36:15.321Z,1.80
2023-07-06T12:40:39.832Z,3.08
2023-07-06T12:42:46.442Z,2.38
2023-07-06T12:44:56.482Z,3.58
2023-07-06T12:47:26.387Z,3.55
2023-07-06T12:49:35.100Z,2.25
2023-07-06T12:51:43.318Z,3.33
2023-07-06T12:53:56.698Z,2.65
2023-07-06T12:56:07.606Z,2.33
2023-07-06T12:58:47.902Z,2.85
2023-07-06T13:00:56.888Z,2.28
2023-07-06T13:03:04.187Z,2.22
2023-07-06T13:07:25.547Z,2.47
2023-07-06T13:09:36.271Z,2.83
2023-07-06T13:11:42.472Z,5.97
2023-07-06T13:13:52.201Z,3.10
2023-07-06T13:16:03.102Z,1.60
2023-07-06T13:18:18.300Z,2.25
2023-07-06T13:20:26.067Z,3.17
2023-07-06T13:22:33.179Z,3.33
2023-07-06T13:24:47.784Z,3.25
2023-07-06T13:26:59.485Z,2.25
2023-07-06T13:29:05.008Z,2.55
2023-07-06T13:31:13.844Z,3.67
2023-07-06T13:33:41.542Z,2.67
2023-07-06T13:35:48.462Z,1.48
2023-07-06T13:37:57.191Z,2.30
2023-07-06T13:40:12.342Z,1.95
2023-07-06T13:42:21.795Z,1.98
2023-07-06T13:44:28.267Z,2.08
2023-07-06T13:46:35.409Z,3.17
2023-07-06T13:48:43.472Z,2.63
2023-07-06T13:50:49.578Z,4.57
2023-07-06T13:52:56.061Z,2.28
2023-07-06T13:55:19.750Z,1.50
2023-07-06T13:57:25.476Z,1.90
2023-07-06T13:59:32.016Z,3.33
2023-07-06T14:01:37.737Z,2.63
2023-07-06T14:04:02.615Z,1.88
2023-07-06T14:06:08.413Z,2.22
2023-07-06T14:08:14.862Z,2.10
2023-07-06T14:10:23.398Z,1.33
2023-07-06T14:12:28.748Z,3.65
2023-07-06T14:14:42.694Z,4.43
2023-07-06T14:16:48.649Z,4.72
2023-07-06T14:18:55.150Z,1.73
2023-07-06T14:21:07.029Z,3.17
2023-07-06T14:23:16.134Z,1.45
2023-07-06T14:25:26.855Z,1.83
2023-07-06T14:27:33.118Z,1.60
2023-07-06T14:29:40.338Z,2.28
2023-07-06T14:31:50.482Z,2.08
2023-07-06T14:33:57.132Z,1.88
2023-07-06T14:36:05.507Z,3.30
2023-07-06T14:38:11.054Z,1.60
2023-07-06T14:40:16.963Z,1.83
2023-07-06T14:42:26.995Z,1.63
2023-07-06T14:44:37.893Z,1.65
2023-07-06T14:46:44.240Z,2.05
2023-07-06T14:48:49.858Z,4.32
2023-07-06T14:51:04.385Z,1.80
2023-07-06T14:53:10.841Z,1.63
2023-07-06T14:55:16.834Z,1.90
2023-07-06T14:57:26.184Z,3.65
2023-07-06T14:59:33.215Z,2.25
2023-07-06T15:01:52.011Z,2.67
2023-07-06T15:04:05.452Z,1.80
2023-07-06T15:06:15.253Z,1.92
2023-07-06T15:08:20.873Z,1.92
2023-07-06T15:10:29.319Z,2.28
2023-07-06T15:12:38.542Z,1.63
2023-07-06T15:14:55.963Z,1.50
2023-07-06T15:17:02.023Z,1.90
2023-07-06T15:19:07.708Z,4.10
2023-07-06T15:21:16.198Z,2.42
2023-07-06T15:23:28.037Z,1.65
2023-07-06T15:25:33.404Z,2.25
2023-07-06T15:27:43.548Z,2.63
2023-07-06T15:29:49.256Z,1.58
2023-07-06T15:31:54.622Z,2.03
2023-07-06T15:34:00.237Z,1.83
2023-07-06T15:36:11.930Z,2.53
2023-07-06T15:38:17.549Z,2.03
2023-07-06T15:40:39.160Z,2.10
2023-07-06T15:42:47.075Z,2.20
2023-07-06T15:45:05.008Z,3.00
2023-07-06T15:47:10.481Z,6.80
2023-07-06T15:49:15.911Z,1.25
2023-07-06T15:51:21.521Z,2.88
2023-07-06T15:53:38.142Z,3.10
2023-07-06T15:57:51.435Z,1.75
2023-07-06T16:00:09.455Z,2.40
2023-07-06T16:02:22.840Z,1.85
2023-07-06T16:04:43.251Z,1.85
2023-07-06T16:06:49.877Z,2.83
2023-07-06T16:08:55.554Z,3.95
2023-07-06T16:11:01.414Z,1.65
2023-07-06T16:13:09.423Z,3.08
2023-07-06T16:15:15.796Z,1.88
2023-07-06T16:17:28.092Z,1.00
2023-07-06T16:19:33.719Z,2.65
2023-07-06T16:21:39.081Z,5.95
2023-07-06T16:23:48.496Z,1.52
2023-07-06T16:25:54.644Z,3.95
2023-07-06T16:28:01.398Z,3.17
2023-07-06T16:30:11.807Z,1.85
2023-07-06T16:32:18.905Z,2.53
2023-07-06T16:34:29.101Z,1.83
2023-07-06T16:36:35.664Z,2.75
2023-07-06T16:38:41.033Z,1.67
2023-07-06T16:40:46.931Z,1.80
2023-07-06T16:42:53.308Z,2.85
2023-07-06T16:44:58.927Z,1.35
2023-07-06T16:47:20.861Z,2.30
2023-07-06T16:49:27.484Z,1.63
2023-07-06T16:51:33.703Z,1.27
2023-07-06T16:53:43.190Z,1.30
2023-07-06T16:55:49.380Z,1.88
2023-07-06T16:57:54.769Z,1.70
2023-07-06T17:00:00.107Z,3.78
2023-07-06T17:02:10.023Z,6.47
2023-07-06T17:04:20.200Z,3.42
2023-07-06T17:06:26.384Z,1.98
2023-07-06T17:08:34.462Z,1.88
2023-07-06T17:10:40.436Z,1.75
2023-07-06T17:12:46.022Z,1.77
2023-07-06T17:14:51.394Z,2.90
2023-07-06T17:17:04.473Z,2.00
2023-07-06T17:19:12.628Z,2.00
2023-07-06T17:21:18.578Z,4.10
2023-07-06T17:23:38.436Z,1.70
2023-07-06T17:25:45.800Z,3.35
2023-07-06T17:27:51.738Z,1.25
2023-07-06T17:29:57.113Z,2.95
2023-07-06T17:32:05.046Z,2.08
2023-07-06T17:34:12.978Z,1.55
2023-07-06T17:36:23.479Z,2.70
2023-07-06T17:38:33.888Z,1.85
2023-07-06T17:40:43.686Z,2.20
2023-07-06T17:42:56.799Z,3.40
2023-07-06T17:45:07.436Z,1.63
2023-07-06T17:47:15.830Z,1.77
2023-07-06T17:49:26.727Z,2.38
2023-07-06T17:51:33.820Z,3.30
2023-07-06T17:53:41.518Z,4.65
2023-07-06T17:55:49.167Z,1.67
2023-07-06T17:57:57.585Z,2.28
2023-07-06T18:00:02.977Z,2.05
2023-07-06T18:02:18.912Z,1.50
2023-07-06T18:04:30.595Z,4.05
2023-07-06T18:06:36.819Z,1.65
2023-07-06T18:08:42.570Z,2.20
2023-07-06T18:10:48.671Z,1.00
2023-07-06T18:12:54.314Z,2.37
2023-07-06T18:15:05.306Z,3.42
2023-07-06T18:17:10.873Z,3.05
2023-07-06T18:19:16.664Z,1.52
2023-07-06T18:21:27.178Z,2.85
2023-07-06T18:23:40.538Z,3.28
2023-07-06T18:25:46.938Z,2.42
2023-07-06T18:27:53.582Z,1.95
2023-07-06T18:29:58.970Z,1.92
2023-07-06T18:32:04.372Z,3.20
2023-07-06T18:34:09.922Z,3.70
2023-07-06T18:36:15.323Z,1.75
2023-07-06T18:38:24.577Z,1.45
2023-07-06T18:40:33.241Z,4.15
2023-07-06T18:42:38.635Z,1.98
2023-07-06T18:45:00.598Z,2.17
2023-07-06T18:47:06.667Z,2.35
2023-07-06T18:49:12.139Z,1.95
2023-07-06T18:51:19.067Z,4.10
2023-07-06T18:53:44.637Z,5.57
2023-07-06T18:55:52.918Z,1.48
2023-07-06T18:57:58.884Z,2.67
2023-07-06T19:00:05.162Z,4.00
2023-07-06T19:02:12.992Z,1.95
2023-07-06T19:04:23.861Z,1.30
2023-07-06T19:06:30.770Z,2.60
2023-07-06T19:08:39.094Z,3.92
2023-07-06T19:10:44.452Z,4.63
2023-07-06T19:12:49.818Z,3.53
2023-07-06T19:14:56.123Z,3.45
2023-07-06T19:17:15.283Z,3.30
2023-07-06T19:19:22.121Z,2.75
2023-07-06T19:21:27.615Z,1.83
2023-07-06T19:23:38.482Z,2.83
2023-07-06T19:25:47.571Z,4.18
2023-07-06T19:27:53.473Z,3.45
2023-07-06T19:29:59.115Z,4.22
2023-07-06T19:32:16.729Z,3.33
2023-07-06T19:34:23.433Z,2.97
2023-07-06T19:36:28.845Z,5.22
2023-07-06T19:38:36.320Z,3.45
2023-07-06T19:42:50.519Z,2.45
2023-07-06T19:44:59.015Z,3.78
2023-07-06T19:47:04.548Z,3.83
2023-07-06T19:49:10.305Z,2.35
2023-07-06T19:51:20.838Z,3.90
2023-07-06T19:53:41.226Z,4.38
2023-07-06T19:55:46.940Z,3.88
2023-07-06T19:57:55.881Z,4.97
2023-07-06T20:00:01.499Z,2.40
2023-07-06T20:02:07.271Z,5.57
2023-07-06T20:04:14.098Z,5.80
2023-07-06T20:06:22.981Z,3.53
2023-07-06T20:08:28.653Z,3.70
2023-07-06T20:10:34.637Z,4.20
2023-07-06T20:12:40.532Z,4.50
2023-07-06T20:14:55.126Z,6.15
2023-07-06T20:17:00.585Z,5.60
2023-07-06T20:19:06.399Z,4.72
2023-07-06T20:21:14.523Z,3.75
2023-07-06T20:23:26.298Z,6.25
2023-07-06T20:25:35.904Z,10.90
2023-07-06T20:29:52.986Z,3.20
2023-07-06T20:31:58.559Z,3.20
2023-07-06T20:34:06.020Z,5.75
2023-07-06T20:36:12.240Z,3.85
2023-07-06T20:38:22.625Z,2.85
2023-07-06T20:40:29.535Z,6.88
2023-07-06T20:42:35.043Z,2.72
2023-07-06T20:44:49.578Z,5.78
2023-07-06T20:47:01.646Z,6.22
2023-07-06T20:49:07.097Z,5.95
2023-07-06T20:51:14.264Z,3.60
2023-07-06T20:53:26.208Z,6.32
2023-07-06T20:55:31.795Z,6.15
2023-07-06T20:57:41.289Z,3.28
2023-07-06T20:59:52.552Z,3.28
2023-07-06T21:02:00.797Z,6.63
2023-07-06T21:04:09.704Z,3.58
2023-07-06T21:06:17.976Z,5.20
2023-07-06T21:08:26.902Z,6.97
2023-07-06T21:10:32.554Z,7.15
2023-07-06T21:12:48.031Z,6.40
2023-07-06T21:14:56.359Z,10.20
2023-07-06T21:17:04.403Z,7.47
2023-07-06T21:19:12.379Z,5.93
2023-07-06T21:21:20.329Z,9.07
2023-07-06T21:25:38.038Z,9.52
2023-07-06T21:27:44.875Z,8.63
2023-07-06T21:29:50.218Z,8.15
2023-07-06T21:31:56.377Z,6.82
2023-07-06T21:34:08.801Z,4.50
2023-07-06T21:36:16.386Z,5.07
2023-07-06T21:38:30.075Z,4.15
2023-07-06T21:43:01.286Z,5.50
2023-07-06T21:45:08.856Z,3.42
2023-07-06T21:47:14.695Z,5.22
2023-07-06T21:49:22.930Z,4.32
2023-07-06T21:51:30.762Z,6.03
2023-07-06T21:53:39.988Z,4.57
2023-07-06T21:55:46.854Z,2.55
2023-07-06T21:57:52.991Z,3.65
2023-07-06T21:59:58.569Z,3.88
2023-07-06T22:02:05.161Z,4.63
2023-07-06T22:04:10.726Z,5.97
2023-07-06T22:06:23.637Z,5.72
2023-07-06T22:08:29.086Z,3.58
2023-07-06T22:10:35.739Z,6.43
2023-07-06T22:12:41.090Z,4.28
2023-07-06T22:14:52.057Z,4.25
2023-07-06T22:17:00.084Z,4.35
2023-07-06T22:19:09.127Z,2.47
2023-07-06T22:21:17.198Z,4.22
2023-07-06T22:23:33.303Z,5.65
2023-07-06T22:25:39.650Z,6.45
2023-07-06T22:27:45.292Z,4.47
2023-07-06T22:29:53.874Z,3.88
2023-07-06T22:32:01.898Z,4.30
2023-07-06T22:34:13.660Z,3.05
2023-07-06T22:36:21.795Z,3.63
2023-07-06T22:38:30.636Z,3.13
2023-07-06T22:40:38.609Z,3.70
2023-07-06T22:43:01.007Z,3.60
2023-07-06T22:45:06.700Z,6.68
2023-07-06T22:47:14.677Z,4.38
2023-07-06T22:51:34.564Z,2.45
2023-07-06T22:53:51.174Z,3.30
2023-07-06T22:55:54.321Z,2.83
2023-07-06T22:58:01.101Z,6.85
2023-07-06T23:00:11.087Z,2.63
2023-07-06T23:02:23.907Z,9.10
2023-07-06T23:04:40.889Z,6.57
2023-07-06T23:06:48.366Z,3.40
2023-07-06T23:08:58.769Z,5.18
2023-07-06T23:11:04.442Z,5.10
2023-07-06T23:13:10.422Z,3.67
2023-07-06T23:15:17.382Z,7.05
2023-07-06T23:17:23.758Z,6.70
2023-07-06T23:19:29.839Z,5.40
2023-07-06T23:21:45.048Z,4.28
2023-07-06T23:23:53.446Z,7.53
2023-07-06T23:26:02.436Z,4.35
2023-07-06T23:28:09.529Z,6.45
2023-07-06T23:30:18.209Z,5.77
2023-07-06T23:32:24.181Z,3.78
2023-07-06T23:34:34.149Z,4.97
2023-07-06T23:36:40.570Z,7.40
2023-07-06T23:38:46.912Z,4.18
2023-07-06T23:40:52.453Z,5.97
2023-07-06T23:43:02.147Z,7.13
2023-07-06T23:45:08.882Z,4.07
2023-07-06T23:47:16.359Z,4.55
2023-07-06T23:49:25.945Z,4.70
2023-07-06T23:51:31.954Z,4.60
2023-07-06T23:53:41.378Z,8.38
2023-07-06T23:55:46.771Z,4.22
2023-07-06T23:57:53.780Z,6.10
